createdAt,value
2022-11-23T00:01:26.553Z,82.03
2022-11-23T00:03:58.416Z,82.10
2022-11-23T00:06:29.199Z,82.10
2022-11-23T00:09:00.167Z,82.03
2022-11-23T00:11:31.425Z,82.01
2022-11-23T00:14:02.654Z,82.04
2022-11-23T00:16:38.646Z,82.07
2022-11-23T00:19:10.115Z,82.02
2022-11-23T00:21:40.910Z,82.03
2022-11-23T00:24:13.211Z,82.03
2022-11-23T00:26:44.130Z,81.97
2022-11-23T00:29:16.239Z,82.09
2022-11-23T00:31:47.195Z,82.06
2022-11-23T00:34:18.302Z,82.02
2022-11-23T00:36:49.111Z,82.02
2022-11-23T00:39:19.859Z,81.98
2022-11-23T00:41:51.549Z,81.95
2022-11-23T00:44:22.626Z,81.98
2022-11-23T00:46:53.620Z,81.98
2022-11-23T00:49:24.613Z,82.02
2022-11-23T00:51:56.592Z,81.99
2022-11-23T00:54:27.394Z,81.96
2022-11-23T00:56:58.572Z,81.97
2022-11-23T00:59:30.030Z,82.02
2022-11-23T01:02:01.374Z,82.04
2022-11-23T01:04:32.595Z,82.02
2022-11-23T01:07:04.016Z,82.03
2022-11-23T01:09:35.416Z,82.07
2022-11-23T01:12:06.696Z,82.08
2022-11-23T01:14:37.603Z,82.09
2022-11-23T01:17:08.289Z,82.13
2022-11-23T01:19:39.205Z,82.14
2022-11-23T01:22:10.227Z,82.12
2022-11-23T01:24:41.237Z,82.13
2022-11-23T01:27:12.692Z,82.12
2022-11-23T01:29:43.527Z,82.13
2022-11-23T01:32:14.358Z,82.16
2022-11-23T01:34:45.200Z,82.14
2022-11-23T01:37:16.165Z,82.17
2022-11-23T01:39:49.041Z,82.16
2022-11-23T01:42:20.084Z,82.15
2022-11-23T01:44:52.254Z,82.14
2022-11-23T01:47:23.038Z,82.12
2022-11-23T01:49:54.195Z,82.16
2022-11-23T01:52:26.711Z,82.19
2022-11-23T01:55:01.615Z,82.17
2022-11-23T01:57:36.764Z,82.16
2022-11-23T02:00:08.494Z,82.13
2022-11-23T02:02:51.023Z,82.09
2022-11-23T02:05:23.485Z,82.10
2022-11-23T02:07:54.587Z,82.11
2022-11-23T02:10:25.825Z,82.08
2022-11-23T02:12:56.892Z,82.10
2022-11-23T02:15:29.482Z,82.10
2022-11-23T02:18:00.827Z,82.08
2022-11-23T02:20:32.137Z,82.10
2022-11-23T02:23:07.560Z,82.12
2022-11-23T02:25:39.815Z,82.15
2022-11-23T02:28:12.350Z,82.16
2022-11-23T02:33:33.115Z,82.10
2022-11-23T02:36:04.323Z,82.14
2022-11-23T02:38:35.400Z,82.16
2022-11-23T02:41:06.408Z,82.16
2022-11-23T02:43:37.744Z,82.19
2022-11-23T02:46:08.976Z,82.23
2022-11-23T02:48:40.092Z,82.21
2022-11-23T02:51:10.940Z,82.17
2022-11-23T02:53:41.782Z,82.19
2022-11-23T02:56:13.500Z,82.16
2022-11-23T02:58:44.317Z,82.20
2022-11-23T03:01:16.148Z,82.20
2022-11-23T03:03:48.731Z,82.19
2022-11-23T03:06:19.877Z,82.21
2022-11-23T03:08:51.579Z,82.23
2022-11-23T03:11:22.784Z,82.22
2022-11-23T03:13:54.279Z,82.27
2022-11-23T03:16:26.156Z,82.21
2022-11-23T03:18:57.088Z,82.20
2022-11-23T03:21:28.403Z,82.16
2022-11-23T03:23:59.481Z,82.19
2022-11-23T03:26:30.779Z,82.19
2022-11-23T03:29:03.206Z,82.25
2022-11-23T03:31:34.348Z,82.22
2022-11-23T03:34:05.376Z,82.27
2022-11-23T03:36:37.854Z,82.20
2022-11-23T03:39:08.960Z,82.15
2022-11-23T03:41:57.838Z,82.20
2022-11-23T03:44:30.470Z,82.19
2022-11-23T03:47:02.324Z,82.16
2022-11-23T03:49:33.680Z,82.14
2022-11-23T03:52:05.124Z,82.11
2022-11-23T03:54:36.534Z,82.14
2022-11-23T03:57:07.661Z,82.12
2022-11-23T03:59:38.572Z,82.13
2022-11-23T04:02:11.007Z,82.10
2022-11-23T04:04:43.655Z,82.09
2022-11-23T04:07:16.661Z,82.09
2022-11-23T04:09:49.771Z,82.13
2022-11-23T04:12:28.295Z,82.07
2022-11-23T04:14:59.575Z,82.12
2022-11-23T04:17:33.572Z,82.07
2022-11-23T04:20:05.893Z,82.07
2022-11-23T04:22:37.284Z,82.05
2022-11-23T04:25:08.419Z,82.03
2022-11-23T04:27:39.478Z,82.02
2022-11-23T04:30:11.699Z,81.94
2022-11-23T04:32:44.237Z,82.00
2022-11-23T04:35:15.809Z,81.94
2022-11-23T04:37:47.817Z,81.89
2022-11-23T04:40:19.203Z,81.89
2022-11-23T04:42:52.143Z,81.85
2022-11-23T04:45:24.105Z,81.85
2022-11-23T04:47:57.716Z,81.88
2022-11-23T04:50:29.433Z,81.87
2022-11-23T04:53:01.817Z,81.82
2022-11-23T04:55:34.742Z,81.85
2022-11-23T04:58:06.213Z,81.85
2022-11-23T05:00:40.476Z,81.83
2022-11-23T05:03:12.198Z,81.89
2022-11-23T05:05:45.277Z,81.88
2022-11-23T05:08:17.685Z,81.87
2022-11-23T05:10:50.623Z,81.88
2022-11-23T05:13:22.258Z,81.91
2022-11-23T05:15:54.331Z,81.94
2022-11-23T05:18:27.291Z,81.92
2022-11-23T05:20:58.531Z,81.92
2022-11-23T05:23:30.618Z,81.96
2022-11-23T05:26:02.280Z,82.06
2022-11-23T05:28:42.164Z,82.16
2022-11-23T05:31:07.579Z,82.10
2022-11-23T05:33:38.648Z,82.24
2022-11-23T05:36:12.016Z,82.26
2022-11-23T05:38:44.191Z,82.17
2022-11-23T05:41:17.209Z,82.21
2022-11-23T05:43:49.021Z,82.13
2022-11-23T05:46:21.960Z,82.19
2022-11-23T05:48:53.011Z,82.20
2022-11-23T05:51:24.858Z,82.14
2022-11-23T05:53:58.524Z,82.19
2022-11-23T05:56:40.136Z,82.25
2022-11-23T05:59:15.186Z,82.28
2022-11-23T06:01:47.826Z,82.28
2022-11-23T06:04:20.503Z,82.27
2022-11-23T06:06:53.633Z,82.25
2022-11-23T06:09:24.507Z,82.29
2022-11-23T06:11:56.705Z,82.29
2022-11-23T06:14:27.829Z,82.31
2022-11-23T06:17:00.900Z,82.28
2022-11-23T06:19:33.784Z,82.26
2022-11-23T06:22:05.324Z,82.26
2022-11-23T06:24:37.901Z,82.26
2022-11-23T06:27:29.036Z,82.32
2022-11-23T06:30:00.509Z,82.36
2022-11-23T06:32:32.705Z,82.32
2022-11-23T06:35:04.170Z,82.26
2022-11-23T06:37:38.076Z,82.24
2022-11-23T06:40:10.163Z,82.25
2022-11-23T06:42:41.054Z,82.21
2022-11-23T06:45:14.066Z,82.21
2022-11-23T06:47:45.483Z,82.23
2022-11-23T06:50:19.490Z,82.19
2022-11-23T06:52:53.550Z,82.15
2022-11-23T06:55:26.549Z,82.19
2022-11-23T06:57:58.883Z,82.12
2022-11-23T07:00:30.312Z,82.15
2022-11-23T07:03:01.804Z,82.08
2022-11-23T07:05:34.945Z,82.10
2022-11-23T07:08:07.295Z,82.06
2022-11-23T07:10:38.846Z,81.96
2022-11-23T07:13:11.830Z,81.94
2022-11-23T07:15:44.357Z,81.88
2022-11-23T07:18:15.176Z,81.88
2022-11-23T07:20:47.792Z,81.86
2022-11-23T07:23:18.866Z,81.77
2022-11-23T07:25:50.188Z,81.75
2022-11-23T07:28:21.561Z,81.71
2022-11-23T07:30:52.781Z,81.68
2022-11-23T07:33:23.943Z,81.65
2022-11-23T07:35:54.931Z,81.59
2022-11-23T07:38:26.299Z,81.51
2022-11-23T07:40:59.155Z,81.32
2022-11-23T07:43:49.839Z,81.30
2022-11-23T07:46:22.499Z,81.22
2022-11-23T07:48:54.620Z,81.09
2022-11-23T07:51:25.796Z,81.01
2022-11-23T07:53:56.827Z,80.90
2022-11-23T07:56:28.169Z,80.71
2022-11-23T07:58:59.113Z,80.71
2022-11-23T08:01:31.784Z,80.58
2022-11-23T08:04:03.286Z,80.56
2022-11-23T08:06:34.517Z,80.39
2022-11-23T08:09:05.978Z,80.15
2022-11-23T08:11:36.767Z,79.73
2022-11-23T08:14:07.786Z,79.62
2022-11-23T08:16:38.798Z,79.56
2022-11-23T08:19:09.878Z,79.62
2022-11-23T08:21:41.092Z,79.36
2022-11-23T08:24:12.051Z,78.96
2022-11-23T08:26:43.085Z,78.89
2022-11-23T08:29:13.836Z,78.57
2022-11-23T08:31:44.740Z,78.60
2022-11-23T08:34:16.046Z,78.08
2022-11-23T08:36:48.213Z,78.06
2022-11-23T08:39:19.658Z,78.23
2022-11-23T08:41:50.509Z,78.11
2022-11-23T08:44:21.496Z,77.92
2022-11-23T08:46:52.673Z,78.09
2022-11-23T08:49:23.597Z,78.02
2022-11-23T08:51:54.980Z,78.16
2022-11-23T08:54:25.794Z,78.27
2022-11-23T08:56:56.708Z,78.38
2022-11-23T08:59:28.124Z,78.07
2022-11-23T09:02:00.953Z,77.82
2022-11-23T09:04:31.927Z,77.44
2022-11-23T09:07:04.300Z,77.52
2022-11-23T09:09:35.371Z,77.55
2022-11-23T09:12:06.903Z,77.61
2022-11-23T09:14:37.913Z,77.76
2022-11-23T09:17:09.329Z,77.82
2022-11-23T09:19:40.434Z,77.77
2022-11-23T09:22:11.351Z,77.47
2022-11-23T09:24:42.238Z,77.16
2022-11-23T09:27:13.641Z,77.10
2022-11-23T09:29:45.028Z,77.09
2022-11-23T09:32:15.931Z,76.95
2022-11-23T09:34:47.086Z,76.70
2022-11-23T09:37:17.892Z,76.42
2022-11-23T09:39:49.288Z,76.33
2022-11-23T09:42:33.758Z,76.00
2022-11-23T09:45:22.768Z,75.94
2022-11-23T09:48:12.149Z,75.61
2022-11-23T09:50:59.695Z,75.68
2022-11-23T09:53:32.614Z,75.32
2022-11-23T09:56:03.857Z,75.32
2022-11-23T09:58:36.228Z,75.00
2022-11-23T10:01:08.737Z,74.80
2022-11-23T10:03:46.982Z,74.81
2022-11-23T10:06:21.982Z,74.84
2022-11-23T10:08:57.395Z,74.73
2022-11-23T10:11:29.987Z,74.68
2022-11-23T10:14:05.960Z,74.44
2022-11-23T10:16:50.295Z,74.27
2022-11-23T10:19:22.562Z,74.17
2022-11-23T10:21:55.267Z,74.16
2022-11-23T10:24:28.974Z,74.23
2022-11-23T10:27:00.384Z,74.11
2022-11-23T10:29:33.673Z,74.14
2022-11-23T10:32:06.234Z,74.25
2022-11-23T10:34:38.715Z,74.00
2022-11-23T10:37:17.032Z,73.98
2022-11-23T10:39:48.260Z,73.97
2022-11-23T10:42:20.703Z,74.14
2022-11-23T10:44:52.494Z,74.09
2022-11-23T10:47:34.004Z,73.71
2022-11-23T10:50:05.486Z,73.83
2022-11-23T10:52:36.381Z,73.79
2022-11-23T10:55:09.343Z,73.87
2022-11-23T10:57:45.426Z,73.87
2022-11-23T11:00:17.982Z,73.89
2022-11-23T11:02:50.862Z,73.90
2022-11-23T11:05:40.155Z,73.66
2022-11-23T11:07:57.305Z,73.68
2022-11-23T11:10:35.810Z,73.60
2022-11-23T11:13:24.619Z,73.67
2022-11-23T11:16:05.885Z,73.62
2022-11-23T11:18:37.975Z,73.78
2022-11-23T11:21:10.903Z,73.86
2022-11-23T11:23:42.572Z,73.98
2022-11-23T11:26:23.868Z,74.11
2022-11-23T11:28:56.699Z,74.14
2022-11-23T11:31:32.202Z,74.28
2022-11-23T11:34:10.853Z,74.23
2022-11-23T11:36:43.034Z,74.57
2022-11-23T11:39:18.746Z,74.67
2022-11-23T11:41:50.167Z,74.72
2022-11-23T11:44:22.430Z,74.81
2022-11-23T11:46:57.568Z,74.76
2022-11-23T11:49:29.927Z,74.83
2022-11-23T11:52:02.781Z,74.83
2022-11-23T11:54:37.151Z,74.91
2022-11-23T11:57:10.190Z,75.03
2022-11-23T11:59:45.873Z,75.01
2022-11-23T12:02:21.177Z,75.07
2022-11-23T12:04:56.496Z,75.08
2022-11-23T12:07:35.207Z,75.19
2022-11-23T12:10:13.419Z,75.15
2022-11-23T12:12:44.816Z,75.23
2022-11-23T12:15:47.696Z,75.25
2022-11-23T12:17:57.809Z,75.18
2022-11-23T12:20:36.097Z,75.26
2022-11-23T12:23:08.546Z,75.36
2022-11-23T12:25:40.810Z,75.45
2022-11-23T12:28:16.670Z,75.48
2022-11-23T12:30:55.241Z,75.47
2022-11-23T12:33:27.818Z,75.46
2022-11-23T12:36:00.215Z,75.59
2022-11-23T12:38:32.551Z,75.60
2022-11-23T12:41:23.900Z,75.61
2022-11-23T12:44:12.328Z,75.66
2022-11-23T12:46:48.349Z,75.55
2022-11-23T12:49:26.749Z,75.52
2022-11-23T12:52:15.080Z,75.54
2022-11-23T12:54:47.332Z,75.47
2022-11-23T12:57:31.671Z,75.38
2022-11-23T13:00:03.978Z,75.32
2022-11-23T13:02:42.675Z,75.38
2022-11-23T13:05:15.025Z,75.33
2022-11-23T13:07:49.501Z,75.35
2022-11-23T13:10:24.760Z,75.31
2022-11-23T13:13:16.065Z,75.31
2022-11-23T13:15:50.824Z,75.46
2022-11-23T13:18:35.146Z,75.72
2022-11-23T13:21:19.634Z,75.71
2022-11-23T13:23:50.624Z,75.78
2022-11-23T13:26:25.707Z,75.65
2022-11-23T13:28:58.707Z,75.73
2022-11-23T13:31:31.729Z,75.84
2022-11-23T13:34:04.007Z,75.89
2022-11-23T13:37:10.505Z,75.86
2022-11-23T13:39:28.381Z,75.85
2022-11-23T13:42:01.482Z,75.83
2022-11-23T13:44:33.375Z,75.86
2022-11-23T13:47:16.456Z,75.84
2022-11-23T13:49:54.092Z,75.90
2022-11-23T13:52:26.826Z,75.88
2022-11-23T13:55:10.193Z,75.93
2022-11-23T13:57:43.787Z,75.91
2022-11-23T14:00:32.542Z,75.96
2022-11-23T14:03:21.223Z,75.90
2022-11-23T14:05:53.484Z,75.83
2022-11-23T14:08:26.517Z,75.72
2022-11-23T14:10:58.449Z,75.90
2022-11-23T14:13:34.273Z,75.93
2022-11-23T14:16:05.869Z,75.90
2022-11-23T14:18:41.274Z,76.02
2022-11-23T14:21:16.434Z,76.13
2022-11-23T14:23:51.879Z,76.20
2022-11-23T14:26:24.399Z,76.33
2022-11-23T14:28:57.209Z,76.41
2022-11-23T14:31:46.283Z,76.53
2022-11-23T14:34:21.676Z,76.63
2022-11-23T14:36:56.751Z,76.69
2022-11-23T14:39:38.791Z,76.90
2022-11-23T14:42:14.307Z,76.82
2022-11-23T14:44:45.881Z,76.81
2022-11-23T14:47:18.166Z,76.83
2022-11-23T14:49:50.310Z,76.86
2022-11-23T14:52:25.667Z,76.65
2022-11-23T14:54:58.001Z,76.68
2022-11-23T14:57:30.757Z,76.57
2022-11-23T15:00:03.923Z,76.52
2022-11-23T15:02:36.320Z,76.49
2022-11-23T15:05:09.396Z,76.51
2022-11-23T15:07:44.987Z,76.49
2022-11-23T15:10:29.523Z,76.68
2022-11-23T15:13:00.920Z,76.62
2022-11-23T15:15:33.740Z,76.69
2022-11-23T15:18:05.053Z,76.95
2022-11-23T15:20:37.376Z,76.87
2022-11-23T15:23:08.210Z,77.06
2022-11-23T15:25:39.447Z,77.00
2022-11-23T15:28:11.962Z,77.02
2022-11-23T15:30:42.976Z,76.99
2022-11-23T15:33:13.723Z,77.05
2022-11-23T15:35:44.887Z,77.01
2022-11-23T15:38:22.059Z,77.13
2022-11-23T15:40:50.908Z,77.07
2022-11-23T15:43:21.737Z,77.12
2022-11-23T15:45:53.976Z,76.96
2022-11-23T15:48:26.403Z,76.84
2022-11-23T15:51:04.750Z,76.81
2022-11-23T15:53:52.047Z,76.88
2022-11-23T15:56:33.234Z,76.90
2022-11-23T15:59:06.005Z,76.83
2022-11-23T16:01:38.711Z,76.76
2022-11-23T16:04:11.333Z,76.87
2022-11-23T16:06:44.057Z,76.93
2022-11-23T16:09:50.711Z,76.95
2022-11-23T16:12:06.204Z,77.04
2022-11-23T16:14:37.486Z,76.98
2022-11-23T16:17:25.304Z,76.89
2022-11-23T16:19:58.023Z,76.55
2022-11-23T16:22:39.134Z,76.48
2022-11-23T16:25:11.980Z,76.42
2022-11-23T16:27:43.507Z,76.47
2022-11-23T16:30:27.725Z,76.43
2022-11-23T16:32:59.485Z,76.33
2022-11-23T16:35:30.648Z,76.48
2022-11-23T16:38:01.693Z,76.52
2022-11-23T16:40:32.602Z,76.56
2022-11-23T16:43:04.356Z,76.64
2022-11-23T16:45:35.593Z,76.61
2022-11-23T16:48:08.119Z,76.58
2022-11-23T16:50:39.268Z,76.72
2022-11-23T16:53:11.528Z,76.70
2022-11-23T16:55:43.977Z,76.62
2022-11-23T16:58:16.676Z,76.65
2022-11-23T17:00:49.499Z,76.69
2022-11-23T17:03:21.112Z,76.63
2022-11-23T17:05:53.564Z,76.45
2022-11-23T17:08:24.898Z,76.27
2022-11-23T17:11:06.081Z,76.26
2022-11-23T17:13:40.790Z,76.20
2022-11-23T17:16:16.005Z,76.21
2022-11-23T17:18:47.997Z,76.21
2022-11-23T17:21:20.173Z,76.32
2022-11-23T17:23:52.420Z,76.37
2022-11-23T17:26:42.558Z,76.48
2022-11-23T17:29:20.269Z,76.44
2022-11-23T17:31:52.227Z,76.50
2022-11-23T17:34:23.785Z,76.48
2022-11-23T17:36:55.421Z,76.58
2022-11-23T17:39:28.542Z,76.55
2022-11-23T17:42:04.823Z,76.50
2022-11-23T17:44:34.370Z,76.37
2022-11-23T17:47:06.346Z,76.33
2022-11-23T17:49:37.713Z,76.33
2022-11-23T17:52:11.160Z,76.42
2022-11-23T17:54:43.796Z,76.35
2022-11-23T17:57:17.089Z,76.33
2022-11-23T17:59:48.583Z,76.29
2022-11-23T18:02:22.490Z,76.18
2022-11-23T18:04:58.250Z,76.24
2022-11-23T18:07:39.997Z,76.17
2022-11-23T18:10:14.362Z,76.22
2022-11-23T18:12:52.098Z,76.02
2022-11-23T18:18:52.113Z,76.00
2022-11-23T18:21:23.974Z,75.69
2022-11-23T18:24:04.133Z,75.60
2022-11-23T18:26:32.076Z,75.50
2022-11-23T18:29:03.910Z,75.44
2022-11-23T18:31:35.655Z,75.53
2022-11-23T18:34:06.938Z,75.47
2022-11-23T18:36:39.403Z,75.56
2022-11-23T18:39:10.974Z,75.56
2022-11-23T18:41:43.430Z,75.59
2022-11-23T18:44:18.701Z,75.72
2022-11-23T18:46:55.066Z,75.72
2022-11-23T18:49:28.526Z,75.63
2022-11-23T18:52:01.226Z,75.78
2022-11-23T18:54:33.816Z,75.82
2022-11-23T18:57:06.045Z,75.78
2022-11-23T19:00:02.528Z,75.89
2022-11-23T19:02:21.008Z,75.91
2022-11-23T19:04:53.847Z,75.92
2022-11-23T19:07:27.419Z,76.01
2022-11-23T19:09:58.383Z,76.07
2022-11-23T19:12:31.212Z,76.17
2022-11-23T19:15:16.362Z,76.23
2022-11-23T19:17:51.412Z,76.12
2022-11-23T19:20:23.958Z,76.25
2022-11-23T19:22:55.328Z,76.14
2022-11-23T19:25:27.916Z,76.29
2022-11-23T19:28:01.026Z,76.36
2022-11-23T19:30:34.340Z,76.20
2022-11-23T19:33:08.429Z,76.10
2022-11-23T19:35:43.759Z,76.13
2022-11-23T19:38:19.320Z,76.06
2022-11-23T19:40:52.583Z,76.06
2022-11-23T19:43:23.673Z,76.16
2022-11-23T19:45:58.957Z,76.09
2022-11-23T19:48:36.606Z,76.09
2022-11-23T19:54:02.350Z,75.95
2022-11-23T19:56:33.888Z,76.00
2022-11-23T19:59:06.900Z,76.00
2022-11-23T20:01:39.382Z,76.01
2022-11-23T20:04:11.396Z,75.96
2022-11-23T20:06:45.239Z,75.54
2022-11-23T20:09:21.734Z,75.24
2022-11-23T20:11:53.370Z,75.38
2022-11-23T20:14:26.295Z,75.30
2022-11-23T20:16:59.307Z,75.33
2022-11-23T20:19:30.930Z,75.32
2022-11-23T20:22:01.972Z,75.25
2022-11-23T20:24:33.165Z,75.02
2022-11-23T20:27:04.633Z,74.86
2022-11-23T20:29:36.173Z,74.78
2022-11-23T20:32:07.317Z,74.47
2022-11-23T20:34:38.929Z,74.35
2022-11-23T20:37:10.031Z,74.33
2022-11-23T20:39:42.487Z,74.08
2022-11-23T20:42:14.574Z,74.03
2022-11-23T20:44:46.885Z,74.00
2022-11-23T20:47:18.957Z,73.88
2022-11-23T20:49:53.317Z,74.03
2022-11-23T20:52:25.475Z,73.91
2022-11-23T20:55:00.128Z,73.60
2022-11-23T20:57:31.657Z,73.42
2022-11-23T21:00:03.123Z,73.27
2022-11-23T21:02:35.663Z,73.37
2022-11-23T21:05:08.751Z,73.24
2022-11-23T21:07:39.846Z,73.50
2022-11-23T21:10:12.972Z,73.59
2022-11-23T21:13:03.128Z,73.59
2022-11-23T21:15:34.442Z,73.71
2022-11-23T21:18:05.941Z,73.82
2022-11-23T21:20:37.357Z,73.98
2022-11-23T21:23:08.580Z,74.08
2022-11-23T21:25:39.838Z,74.11
2022-11-23T21:28:11.089Z,74.06
2022-11-23T21:30:42.871Z,74.23
2022-11-23T21:33:14.891Z,74.10
2022-11-23T21:35:48.567Z,74.11
2022-11-23T21:38:19.974Z,74.08
2022-11-23T21:40:52.526Z,74.19
2022-11-23T21:43:23.576Z,74.27
2022-11-23T21:46:01.532Z,74.32
2022-11-23T21:48:32.930Z,74.36
2022-11-23T21:51:09.289Z,74.46
2022-11-23T21:53:42.266Z,74.38
2022-11-23T21:56:14.491Z,74.44
2022-11-23T21:58:46.097Z,74.40
2022-11-23T22:01:19.073Z,74.42
2022-11-23T22:03:51.784Z,74.47
2022-11-23T22:06:25.605Z,74.49
2022-11-23T22:09:00.193Z,74.50
2022-11-23T22:11:32.381Z,74.53
2022-11-23T22:14:06.683Z,74.59
2022-11-23T22:16:42.949Z,74.43
2022-11-23T22:19:16.005Z,74.33
2022-11-23T22:21:47.578Z,74.40
2022-11-23T22:24:20.419Z,74.37
2022-11-23T22:26:51.620Z,74.46
2022-11-23T22:29:23.138Z,74.45
2022-11-23T22:31:54.923Z,74.50
2022-11-23T22:34:26.941Z,74.50
2022-11-23T22:37:00.244Z,74.55
2022-11-23T22:39:32.290Z,74.61
2022-11-23T22:42:04.009Z,74.66
2022-11-23T22:44:36.175Z,74.67
2022-11-23T22:47:09.238Z,74.69
2022-11-23T22:49:41.032Z,74.65
2022-11-23T22:52:12.230Z,74.65
2022-11-23T22:54:44.475Z,74.65
2022-11-23T22:57:15.501Z,74.65
2022-11-23T22:59:46.581Z,74.65
2022-11-23T23:02:18.048Z,74.68
2022-11-23T23:04:49.249Z,74.63
2022-11-23T23:07:20.521Z,74.65
2022-11-23T23:09:52.580Z,74.66
2022-11-23T23:12:24.276Z,74.69
2022-11-23T23:14:55.256Z,74.70
2022-11-23T23:17:26.332Z,74.65
2022-11-23T23:19:58.475Z,74.63
2022-11-23T23:22:29.509Z,74.63
2022-11-23T23:25:06.459Z,74.64
2022-11-23T23:27:34.608Z,74.62
2022-11-23T23:30:06.719Z,74.37
2022-11-23T23:32:38.183Z,74.37
2022-11-23T23:35:10.933Z,74.38
2022-11-23T23:37:41.960Z,74.32
2022-11-23T23:40:13.333Z,74.22
2022-11-23T23:42:44.458Z,74.29
2022-11-23T23:45:15.677Z,74.27
2022-11-23T23:47:46.797Z,74.21
2022-11-23T23:50:18.684Z,74.12
2022-11-23T23:52:53.446Z,74.08
2022-11-23T23:55:26.721Z,74.13
2022-11-23T23:57:59.516Z,74.13
